Time;durP1;ratioP1;P1;durP2;ratioP2;P2;SDS_P1;SDS_P2;PMS_P1;PMS_P2;Temp;Humidity;BMP_temperature;BMP_pressure;BME280_temperature;BME280_humidity;BME280_pressure;Samples;Min_cycle;Max_cycle;Signal;HPM_P1;HPM_P2
2022/11/01 00:00:53;;;;;;;23.63;14.98;;;;;;;13.42;100.00;100787.38;5032372;28;20318;-56
2022/11/01 00:03:19;;;;;;;24.88;15.85;;;;;;;13.41;100.00;100775.47;5015620;28;20129;-55
2022/11/01 00:05:44;;;;;;;23.95;14.95;;;;;;;13.43;100.00;100771.56;5033362;28;20133;-56
2022/11/01 00:08:10;;;;;;;24.20;15.40;;;;;;;13.40;100.00;100759.94;5033067;28;20380;-55
2022/11/01 00:10:35;;;;;;;27.00;15.88;;;;;;;13.42;100.00;100756.81;5033616;28;20029;-55
2022/11/01 00:13:00;;;;;;;24.02;15.30;;;;;;;13.44;100.00;100750.97;5032688;28;20018;-55
2022/11/01 00:15:25;;;;;;;25.50;15.05;;;;;;;13.45;100.00;100758.97;5033782;28;20037;-56
2022/11/01 00:17:51;;;;;;;23.55;14.65;;;;;;;13.50;100.00;100746.84;5033748;28;20112;-55
2022/11/01 00:20:16;;;;;;;22.27;14.75;;;;;;;13.50;100.00;100744.09;5033799;28;20040;-54
2022/11/01 00:22:41;;;;;;;24.65;15.10;;;;;;;13.52;100.00;100739.81;5033945;28;20094;-55
2022/11/01 00:25:07;;;;;;;24.40;15.10;;;;;;;13.55;100.00;100733.63;5016280;28;20112;-56
2022/11/01 00:27:32;;;;;;;22.75;14.20;;;;;;;13.58;100.00;100732.13;5033757;28;20486;-57
2022/11/01 00:29:58;;;;;;;23.77;14.85;;;;;;;13.63;100.00;100733.91;5034136;28;20508;-55
2022/11/01 00:32:23;;;;;;;23.77;15.43;;;;;;;13.71;100.00;100736.69;5033037;28;20021;-56
2022/11/01 00:34:48;;;;;;;22.65;14.70;;;;;;;13.75;100.00;100731.28;5033270;28;20029;-54
2022/11/01 00:37:13;;;;;;;23.05;14.68;;;;;;;13.78;100.00;100736.19;5033030;28;20105;-54
2022/11/01 00:39:39;;;;;;;24.70;14.55;;;;;;;13.79;100.00;100723.91;5033087;28;20022;-55
2022/11/01 00:42:04;;;;;;;24.20;14.68;;;;;;;13.82;100.00;100728.81;5033605;28;20460;-55
2022/11/01 00:44:30;;;;;;;26.13;15.38;;;;;;;13.83;100.00;100729.66;5015485;28;20157;-55
2022/11/01 00:46:55;;;;;;;22.92;15.10;;;;;;;13.81;100.00;100721.63;5032550;28;20398;-54
2022/11/01 00:49:20;;;;;;;23.38;14.80;;;;;;;13.83;100.00;100722.09;5032821;28;20037;-55
2022/11/01 00:51:46;;;;;;;23.23;14.77;;;;;;;13.88;100.00;100732.22;5032618;28;20041;-54
2022/11/01 00:54:11;;;;;;;24.92;14.57;;;;;;;13.87;100.00;100733.38;5010678;28;20032;-55
2022/11/01 00:56:36;;;;;;;23.55;14.60;;;;;;;13.86;100.00;100724.22;5032900;28;20116;-55
2022/11/01 00:59:02;;;;;;;22.52;14.98;;;;;;;13.84;100.00;100732.09;5033185;28;20457;-56
2022/11/01 01:01:28;;;;;;;23.00;15.10;;;;;;;13.80;100.00;100719.19;5032658;28;20512;-57
2022/11/01 01:03:53;;;;;;;23.60;14.25;;;;;;;13.77;100.00;100715.09;5015047;28;20121;-55
2022/11/01 01:06:18;;;;;;;21.58;14.15;;;;;;;13.76;100.00;100719.03;5032360;28;20045;-56
2022/11/01 01:08:43;;;;;;;24.38;14.85;;;;;;;13.74;100.00;100718.53;5033051;28;20465;-55
2022/11/01 01:11:09;;;;;;;21.55;14.27;;;;;;;13.74;100.00;100715.75;5032756;28;20378;-56
2022/11/01 01:13:34;;;;;;;21.45;14.88;;;;;;;13.70;100.00;100706.44;5032679;28;20104;-56
2022/11/01 01:15:59;;;;;;;23.42;14.70;;;;;;;13.75;100.00;100713.78;5032244;28;20041;-56
2022/11/01 01:18:26;;;;;;;21.42;14.20;;;;;;;13.75;100.00;100711.81;5032201;28;20053;-56
2022/11/01 01:20:59;;;;;;;21.52;14.10;;;;;;;13.79;100.00;100704.44;5032028;28;20098;-55
2022/11/01 01:23:24;;;;;;;22.27;14.57;;;;;;;13.81;100.00;100693.81;5032102;28;20030;-55
2022/11/01 01:25:49;;;;;;;20.88;13.95;;;;;;;13.88;100.00;100696.09;5014343;28;20091;-56
2022/11/01 01:28:14;;;;;;;20.67;13.30;;;;;;;14.00;100.00;100699.00;5032417;28;20136;-56
2022/11/01 01:30:40;;;;;;;22.10;13.93;;;;;;;14.12;100.00;100698.28;5032234;28;20026;-55
2022/11/01 01:33:05;;;;;;;21.35;13.60;;;;;;;14.25;100.00;100703.97;5032132;28;20025;-57
2022/11/01 01:35:31;;;;;;;22.38;14.07;;;;;;;14.33;100.00;100701.13;5032082;28;20087;-56
2022/11/01 01:37:56;;;;;;;22.17;14.30;;;;;;;14.40;100.00;100705.38;5031918;28;20421;-56
2022/11/01 01:40:21;;;;;;;23.08;14.45;;;;;;;14.44;100.00;100692.41;5031848;28;20033;-56
2022/11/01 01:42:47;;;;;;;22.15;14.00;;;;;;;14.48;100.00;100699.72;5014072;28;20587;-57
2022/11/01 01:45:36;;;;;;;22.35;13.88;;;;;;;14.57;100.00;100696.91;5031507;28;20029;-55
2022/11/01 01:48:39;;;;;;;20.45;13.55;;;;;;;14.59;100.00;100702.13;5031655;28;20090;-55
2022/11/01 01:51:13;;;;;;;21.85;13.63;;;;;;;14.63;100.00;100694.75;4949704;29;20437;-54
2022/11/01 01:53:45;;;;;;;22.73;13.55;;;;;;;14.66;100.00;100699.63;5020271;28;20044;-55
2022/11/01 01:56:15;;;;;;;20.50;13.90;;;;;;;14.68;100.00;100690.97;5031665;28;20488;-54
2022/11/01 01:58:55;;;;;;;23.50;13.68;;;;;;;14.65;100.00;100686.84;5032135;28;20029;-56
2022/11/01 02:01:21;;;;;;;23.00;14.43;;;;;;;14.68;100.00;100690.97;5031591;28;20045;-56
2022/11/01 02:03:47;;;;;;;22.90;14.40;;;;;;;14.71;100.00;100684.72;5030853;28;20032;-56
2022/11/01 02:06:16;;;;;;;22.35;13.95;;;;;;;14.77;100.00;100698.09;5031171;28;20115;-56
2022/11/01 02:08:44;;;;;;;23.95;13.93;;;;;;;14.81;100.00;100682.38;5031610;28;20029;-54
2022/11/01 02:11:10;;;;;;;22.00;14.05;;;;;;;14.87;100.00;100687.72;5031208;28;20029;-54
2022/11/01 02:13:36;;;;;;;20.50;14.07;;;;;;;14.95;100.00;100692.41;5013047;28;20041;-54
2022/11/01 02:16:19;;;;;;;21.13;13.18;;;;;;;14.99;100.00;100687.78;5031693;28;20026;-54
2022/11/01 02:19:15;;;;;;;21.65;13.32;;;;;;;15.00;100.00;100688.59;5014071;28;20072;-55
2022/11/01 02:21:49;;;;;;;22.92;13.80;;;;;;;15.05;100.00;100691.19;5012208;28;20130;-56
2022/11/01 02:24:29;;;;;;;21.73;12.95;;;;;;;15.02;100.00;100689.88;5011941;28;20037;-56
2022/11/01 02:27:16;;;;;;;19.98;12.52;;;;;;;15.08;100.00;100699.69;5011687;28;20025;-55
2022/11/01 02:29:55;;;;;;;21.90;12.50;;;;;;;15.10;100.00;100697.38;5011306;28;20041;-55
2022/11/01 02:32:22;;;;;;;21.92;13.32;;;;;;;15.10;100.00;100699.34;5011385;28;20033;-56
2022/11/01 02:34:58;;;;;;;20.88;13.32;;;;;;;15.07;100.00;100698.06;5011501;28;20084;-56
2022/11/01 02:37:27;;;;;;;20.88;13.52;;;;;;;15.11;100.00;100681.47;5011341;28;20037;-57
2022/11/01 02:39:59;;;;;;;20.98;12.70;;;;;;;15.08;100.00;100684.91;5011710;28;20046;-56
2022/11/01 02:42:31;;;;;;;20.60;13.80;;;;;;;15.16;100.00;100694.38;5011704;28;20469;-56
2022/11/01 02:45:03;;;;;;;21.80;13.00;;;;;;;15.15;100.00;100692.72;4993910;28;20047;-55
2022/11/01 02:47:30;;;;;;;21.20;12.27;;;;;;;15.19;100.00;100696.47;5011357;28;20483;-56
2022/11/01 02:50:00;;;;;;;21.65;12.90;;;;;;;15.14;100.00;100700.28;5007881;28;20044;-56
2022/11/01 02:52:30;;;;;;;20.63;12.20;;;;;;;15.14;100.00;100700.28;5011717;28;20108;-56
2022/11/01 02:54:58;;;;;;;23.35;12.63;;;;;;;15.10;100.00;100700.16;5012253;28;20084;-56
2022/11/01 02:57:34;;;;;;;22.88;12.43;;;;;;;15.13;100.00;100707.03;5012260;28;20481;-56
2022/11/01 03:00:18;;;;;;;23.38;13.13;;;;;;;15.13;100.00;100710.59;5011358;28;20057;-55
2022/11/01 03:02:44;;;;;;;20.73;12.23;;;;;;;15.15;100.00;100713.06;5011854;28;20464;-54
2022/11/01 03:05:18;;;;;;;23.23;13.02;;;;;;;15.12;100.00;100703.41;5011540;28;20053;-55
2022/11/01 03:07:46;;;;;;;;;;;;;;;15.06;100.00;100710.34;5011667;28;20022;-57
2022/11/01 03:10:12;;;;;;;21.98;13.25;;;;;;;15.01;100.00;100706.94;5011369;28;19913;-56
2022/11/01 03:12:49;;;;;;;19.75;12.65;;;;;;;15.03;100.00;100716.59;5011211;28;20025;-57
2022/11/01 03:15:26;;;;;;;20.25;12.93;;;;;;;15.01;100.00;100718.91;5011455;28;20121;-56
2022/11/01 03:18:00;;;;;;;21.27;12.57;;;;;;;15.01;100.00;100712.50;5014510;28;20470;-56
2022/11/01 03:20:47;;;;;;;20.05;13.05;;;;;;;15.07;100.00;100723.13;5015007;28;20026;-56
2022/11/01 03:23:17;;;;;;;22.45;12.73;;;;;;;15.06;100.00;100726.25;5014836;28;20053;-56
2022/11/01 03:25:49;;;;;;;21.35;13.18;;;;;;;15.04;100.00;100728.56;5014839;28;20029;-56
2022/11/01 03:28:19;;;;;;;21.13;12.77;;;;;;;15.03;100.00;100735.28;5014780;28;20045;-55
2022/11/01 03:31:08;;;;;;;22.55;13.27;;;;;;;15.03;100.00;100746.44;5015025;28;20509;-56
2022/11/01 03:33:38;;;;;;;19.80;12.65;;;;;;;15.06;100.00;100743.78;5013633;28;20128;-55
2022/11/01 03:36:11;;;;;;;19.92;12.90;;;;;;;15.03;100.00;100743.63;5013283;28;20034;-55
2022/11/01 03:38:41;;;;;;;20.13;12.15;;;;;;;15.00;99.93;100745.13;5014266;28;20029;-56
2022/11/01 03:41:12;;;;;;;19.58;11.30;;;;;;;15.04;98.20;100756.41;5014588;28;20032;-57
2022/11/01 03:43:38;;;;;;;20.90;11.63;;;;;;;15.01;97.58;100751.50;5012646;28;20049;-53
2022/11/01 03:46:04;;;;;;;19.70;11.77;;;;;;;14.95;97.33;100759.25;5012751;28;20049;-56
2022/11/01 03:48:29;;;;;;;19.40;11.35;;;;;;;14.94;95.77;100772.38;5014269;28;20513;-56
2022/11/01 03:50:55;;;;;;;19.73;11.48;;;;;;;14.91;95.09;100780.59;5014168;28;20045;-56
2022/11/01 03:53:21;;;;;;;18.80;10.35;;;;;;;14.90;93.02;100782.56;5014131;28;20026;-56
2022/11/01 03:55:46;;;;;;;19.20;10.90;;;;;;;14.87;91.41;100793.56;5013821;28;20100;-55
2022/11/01 03:58:11;;;;;;;17.50;10.40;;;;;;;14.81;91.92;100801.28;5013805;28;20076;-56
2022/11/01 04:00:39;;;;;;;17.95;9.85;;;;;;;14.80;87.24;100811.63;4995970;28;20033;-55
2022/11/01 04:03:05;;;;;;;16.63;10.02;;;;;;;14.70;87.87;100813.94;5014103;28;20038;-56
2022/11/01 04:05:32;;;;;;;16.45;9.60;;;;;;;14.66;85.34;100824.91;5013036;28;20112;-56
2022/11/01 04:07:58;;;;;;;15.15;9.15;;;;;;;14.60;83.55;100826.25;5013314;28;20030;-57
2022/11/01 04:10:24;;;;;;;13.07;9.00;;;;;;;14.54;80.89;100825.63;5013983;28;20116;-58
2022/11/01 04:12:51;;;;;;;13.05;8.30;;;;;;;14.59;77.49;100827.41;5014012;28;20095;-57
2022/11/01 04:20:53;;;;;;;12.88;8.52;;;;;;;14.33;76.65;100854.16;5014011;28;20409;-57
2022/11/01 04:23:19;;;;;;;12.85;8.50;;;;;;;14.24;76.75;100863.69;4996251;28;20516;-58
2022/11/01 04:25:48;;;;;;;15.30;9.02;;;;;;;14.15;76.75;100875.66;5013929;28;20487;-56
2022/11/01 04:28:14;;;;;;;13.20;8.95;;;;;;;14.04;76.75;100882.72;5013283;28;20041;-56
2022/11/01 04:30:40;;;;;;;14.18;9.10;;;;;;;13.99;77.16;100888.44;4995899;28;20041;-55
2022/11/01 04:33:05;;;;;;;15.63;8.80;;;;;;;13.91;77.34;100892.03;5013474;28;20144;-56
2022/11/01 04:35:30;;;;;;;13.77;9.00;;;;;;;13.87;76.52;100889.94;5013439;28;20068;-57
2022/11/01 04:37:57;;;;;;;15.15;9.10;;;;;;;13.87;76.43;100898.28;5013246;28;20104;-56
2022/11/01 04:40:23;;;;;;;11.55;9.00;;;;;;;13.83;76.76;100902.03;5009955;28;20036;-58
2022/11/01 04:42:48;;;;;;;12.30;8.88;;;;;;;13.76;77.20;100901.69;5013614;28;20101;-56
2022/11/01 04:45:13;;;;;;;12.85;9.02;;;;;;;13.70;77.19;100906.59;5013236;28;20545;-57
2022/11/01 04:47:39;;;;;;;12.40;8.60;;;;;;;13.65;77.08;100912.31;5013317;28;20120;-56
2022/11/01 04:50:04;;;;;;;15.02;8.90;;;;;;;13.59;77.40;100910.84;5013473;28;20369;-56
2022/11/01 04:52:30;;;;;;;12.98;8.95;;;;;;;13.56;77.16;100938.16;4995633;28;20113;-57
2022/11/01 04:54:55;;;;;;;12.75;8.98;;;;;;;13.56;77.33;100940.09;5013374;28;20334;-56
2022/11/01 04:57:23;;;;;;;13.32;9.30;;;;;;;13.48;77.26;100944.50;5013260;28;20061;-56
2022/11/01 04:59:53;;;;;;;14.13;9.20;;;;;;;13.43;77.89;100946.63;5013048;28;20110;-57
2022/11/01 05:02:20;;;;;;;13.70;8.95;;;;;;;13.34;77.71;100950.16;5013249;28;20022;-55
2022/11/01 05:04:46;;;;;;;17.35;9.38;;;;;;;13.33;78.43;100970.75;5013001;28;20112;-56
2022/11/01 05:07:11;;;;;;;13.98;9.27;;;;;;;13.29;77.85;100986.41;5012972;28;20104;-55
2022/11/01 05:09:37;;;;;;;14.38;9.02;;;;;;;13.30;77.24;100990.84;5012918;28;20049;-56
2022/11/01 05:12:02;;;;;;;12.57;9.40;;;;;;;13.26;77.80;100987.88;5012833;28;20486;-56
2022/11/01 05:14:28;;;;;;;13.10;9.02;;;;;;;13.24;76.76;100997.69;5012592;28;20394;-57
2022/11/01 05:16:54;;;;;;;14.30;8.82;;;;;;;13.27;75.70;101008.16;5012405;28;20025;-57
2022/11/01 05:19:20;;;;;;;13.25;8.73;;;;;;;13.19;74.83;100997.81;5012715;28;20121;-57
2022/11/01 05:21:45;;;;;;;14.80;9.30;;;;;;;13.18;75.29;101013.66;5012328;28;20112;-56
2022/11/01 05:24:10;;;;;;;13.90;9.30;;;;;;;13.18;74.08;101010.06;5012612;28;20025;-57
2022/11/01 05:26:35;;;;;;;17.70;9.30;;;;;;;13.09;73.92;101013.63;5012277;28;20030;-56
2022/11/01 05:29:01;;;;;;;15.73;9.98;;;;;;;13.06;73.58;101017.06;5012873;28;20057;-57
2022/11/01 05:31:26;;;;;;;13.77;9.10;;;;;;;12.98;74.83;101020.59;5012257;28;20058;-57
2022/11/01 05:33:51;;;;;;;15.65;9.75;;;;;;;12.96;74.72;101011.78;5009790;28;20037;-54
2022/11/01 05:36:17;;;;;;;15.30;8.98;;;;;;;12.89;75.51;101034.44;5011357;28;20025;-57
2022/11/01 05:38:42;;;;;;;17.00;9.30;;;;;;;12.83;75.59;101027.38;5011895;28;20400;-57
2022/11/01 05:41:07;;;;;;;14.90;9.60;;;;;;;12.79;76.45;101029.13;4994745;28;20300;-57
2022/11/01 05:43:33;;;;;;;13.15;9.55;;;;;;;12.74;77.11;101029.28;5012279;28;20026;-57
2022/11/01 05:46:02;;;;;;;17.10;9.88;;;;;;;12.67;77.47;101026.09;4994631;28;20543;-55
2022/11/01 05:48:27;;;;;;;17.50;9.88;;;;;;;12.58;78.48;101026.06;5012257;28;20496;-57
2022/11/01 05:50:53;;;;;;;15.80;9.88;;;;;;;12.58;78.17;101034.38;4994808;28;20034;-57
2022/11/01 05:53:18;;;;;;;14.25;9.50;;;;;;;12.55;78.50;101040.56;5012365;28;20026;-56
2022/11/01 05:55:43;;;;;;;16.80;9.50;;;;;;;12.52;79.33;101044.78;5011764;28;20065;-55
2022/11/01 05:58:08;;;;;;;16.23;10.40;;;;;;;12.48;79.70;101047.38;5011729;28;20029;-57
2022/11/01 06:00:34;;;;;;;12.45;9.40;;;;;;;12.46;80.01;101048.84;5011729;28;20112;-55
2022/11/01 06:02:59;;;;;;;15.82;9.88;;;;;;;12.42;79.91;101050.56;4994086;28;20029;-56
2022/11/01 06:05:26;;;;;;;15.20;10.50;;;;;;;12.39;79.80;101057.59;5011664;28;20706;-55
2022/11/01 06:07:51;;;;;;;16.80;9.80;;;;;;;12.46;78.47;101059.94;5011864;28;20034;-56
2022/11/01 06:10:17;;;;;;;15.77;9.50;;;;;;;12.41;78.54;101063.66;5011519;28;20026;-56
2022/11/01 06:12:42;;;;;;;16.42;9.80;;;;;;;12.41;75.86;101068.34;5011642;28;20022;-56
2022/11/01 06:15:08;;;;;;;16.98;10.07;;;;;;;12.40;75.91;101066.72;4993914;28;20084;-56
2022/11/01 06:17:33;;;;;;;17.80;9.98;;;;;;;12.38;74.98;101074.53;5011936;28;20025;-56
2022/11/01 06:19:59;;;;;;;16.92;9.70;;;;;;;12.36;74.31;101087.91;5012009;28;20137;-57
2022/11/01 06:22:24;;;;;;;18.10;9.93;;;;;;;12.33;73.51;101086.56;5012674;28;20026;-57
2022/11/01 06:24:49;;;;;;;16.05;10.00;;;;;;;12.30;73.14;101088.00;5012606;28;20052;-57
2022/11/01 06:27:15;;;;;;;17.30;9.80;;;;;;;12.31;73.67;101092.44;5012861;28;20511;-58
2022/11/01 06:29:40;;;;;;;16.70;9.70;;;;;;;12.30;73.88;101103.84;5008651;28;20393;-57
2022/11/01 06:32:05;;;;;;;16.92;9.85;;;;;;;12.26;74.53;101100.88;4994352;28;20022;-58
2022/11/01 06:34:31;;;;;;;14.90;9.57;;;;;;;12.22;74.86;101112.91;5012405;28;20441;-56
2022/11/01 06:36:57;;;;;;;17.90;9.52;;;;;;;12.22;75.62;101110.13;5012673;28;20500;-59
2022/11/01 06:39:22;;;;;;;15.80;9.82;;;;;;;12.22;75.77;101118.44;5012824;28;20114;-58
2022/11/01 06:41:47;;;;;;;16.40;9.50;;;;;;;12.21;76.13;101111.25;5012294;28;20041;-57
2022/11/01 06:44:13;;;;;;;17.00;10.18;;;;;;;12.17;76.80;101114.66;5012007;28;20026;-58
2022/11/01 06:46:38;;;;;;;17.77;10.45;;;;;;;12.14;77.26;101120.81;5011966;28;20049;-57
2022/11/01 06:49:03;;;;;;;16.10;9.90;;;;;;;12.13;77.43;101123.91;5012398;28;20523;-57
2022/11/01 06:51:28;;;;;;;17.75;10.82;;;;;;;12.11;77.74;101131.69;4997413;28;20452;-56
2022/11/01 06:53:54;;;;;;;18.58;10.60;;;;;;;12.09;77.86;101140.34;5015944;28;20022;-57
2022/11/01 06:56:19;;;;;;;18.15;10.55;;;;;;;12.03;78.40;101136.03;5022384;28;20044;-56
2022/11/01 06:58:48;;;;;;;18.65;10.10;;;;;;;12.03;78.28;101138.81;5035762;28;20036;-56
2022/11/01 07:01:13;;;;;;;17.35;9.68;;;;;;;12.00;78.92;101147.75;5035470;28;20037;-56
2022/11/01 07:03:38;;;;;;;16.65;9.52;;;;;;;11.99;78.96;101144.16;5035858;28;20025;-56
2022/11/01 07:06:04;;;;;;;18.60;9.65;;;;;;;11.99;78.70;101146.94;5035856;28;20139;-56
2022/11/01 07:08:29;;;;;;;17.67;9.40;;;;;;;12.05;78.43;101146.81;5035492;28;20028;-56
2022/11/01 07:10:55;;;;;;;17.58;9.32;;;;;;;12.02;78.91;101159.34;5035630;28;20021;-57
2022/11/01 07:13:20;;;;;;;18.50;9.15;;;;;;;12.06;78.57;101159.56;5035465;28;20052;-57
2022/11/01 07:15:45;;;;;;;19.17;9.30;;;;;;;12.02;79.47;101168.47;5021416;28;20446;-56
2022/11/01 07:18:11;;;;;;;14.75;8.82;;;;;;;12.00;79.58;101159.63;5014126;28;20037;-55
2022/11/01 07:20:40;;;;;;;16.35;8.95;;;;;;;11.99;80.33;101179.38;5014446;28;20029;-55
2022/11/01 07:23:10;;;;;;;19.55;9.02;;;;;;;11.98;79.43;101186.03;5013238;28;20060;-56
2022/11/01 07:25:35;;;;;;;18.65;9.63;;;;;;;11.98;79.80;101197.13;5014175;28;20092;-55
2022/11/01 07:28:01;;;;;;;19.08;9.05;;;;;;;11.96;80.34;101191.03;5010153;28;20026;-54
2022/11/01 07:30:27;;;;;;;16.85;9.45;;;;;;;11.92;79.68;101195.56;4996057;28;20037;-55
2022/11/01 07:32:56;;;;;;;17.95;9.13;;;;;;;11.91;80.09;101205.00;5014168;28;20041;-55
2022/11/01 07:35:23;;;;;;;18.08;9.50;;;;;;;11.94;80.09;101201.63;5013667;28;20029;-55
2022/11/01 07:37:48;;;;;;;18.90;9.20;;;;;;;11.94;79.18;101213.53;5013634;28;20036;-53
2022/11/01 07:40:14;;;;;;;18.70;8.90;;;;;;;11.96;78.79;101218.75;5013803;28;20029;-56
2022/11/01 07:42:41;;;;;;;16.83;8.63;;;;;;;11.95;78.30;101231.81;5014092;28;20445;-56
2022/11/01 07:45:09;;;;;;;19.42;8.88;;;;;;;12.02;77.13;101229.47;5013746;28;20053;-54
2022/11/01 07:47:34;;;;;;;19.27;8.90;;;;;;;12.02;76.92;101231.44;5013642;28;20057;-55
2022/11/01 07:49:59;;;;;;;19.48;9.85;;;;;;;12.00;77.66;101230.91;5013660;28;20064;-55
2022/11/01 07:52:24;;;;;;;19.05;9.70;;;;;;;11.98;77.20;101227.63;5013443;28;20442;-56
2022/11/01 07:54:50;;;;;;;17.60;9.30;;;;;;;11.97;77.30;101228.72;5019127;28;20112;-54
2022/11/01 07:57:15;;;;;;;21.13;9.73;;;;;;;11.99;77.29;101234.81;5024127;28;20406;-54
2022/11/01 07:59:40;;;;;;;17.52;9.25;;;;;;;12.01;76.76;101241.69;5031688;28;20460;-55
2022/11/01 08:02:07;;;;;;;21.40;9.80;;;;;;;12.00;76.61;101242.00;5031924;28;20155;-55
2022/11/01 08:04:33;;;;;;;21.42;9.35;;;;;;;12.04;76.07;101245.81;5032945;28;20025;-55
2022/11/01 08:06:58;;;;;;;17.70;9.20;;;;;;;12.05;76.14;101244.66;5032854;28;20430;-54
2022/11/01 08:09:23;;;;;;;20.52;9.70;;;;;;;12.07;76.28;101253.50;5041362;28;20033;-55
2022/11/01 08:11:49;;;;;;;21.10;9.32;;;;;;;12.08;76.11;101249.63;5052930;28;20035;-55
2022/11/01 08:14:14;;;;;;;20.83;9.63;;;;;;;12.11;75.90;101271.19;5052547;28;20033;-53
2022/11/01 08:16:39;;;;;;;20.33;9.55;;;;;;;12.12;75.57;101255.38;5052020;28;20024;-55
2022/11/01 08:19:04;;;;;;;18.20;8.98;;;;;;;12.13;76.21;101251.47;5033915;28;20060;-55
2022/11/01 08:21:30;;;;;;;22.75;9.95;;;;;;;12.17;75.29;101260.84;5051994;28;20029;-55
2022/11/01 08:23:55;;;;;;;18.15;9.60;;;;;;;12.20;74.78;101262.16;5052025;28;20449;-56
2022/11/01 08:26:20;;;;;;;20.13;9.65;;;;;;;12.25;75.30;101282.31;5051720;28;20097;-54
2022/11/01 08:28:46;;;;;;;22.58;9.90;;;;;;;12.25;74.98;101268.44;5051669;28;20032;-55
2022/11/01 08:31:11;;;;;;;19.63;9.77;;;;;;;12.28;74.70;101278.91;5033806;28;20175;-54
2022/11/01 08:33:36;;;;;;;19.80;10.13;;;;;;;12.29;75.54;101288.06;5047232;28;20124;-55
2022/11/01 08:36:02;;;;;;;21.52;9.77;;;;;;;12.26;75.50;101297.00;5032167;28;20068;-55
2022/11/01 08:38:27;;;;;;;21.33;9.80;;;;;;;12.31;75.59;101289.38;5031788;28;20111;-55
2022/11/01 08:40:53;;;;;;;19.48;9.65;;;;;;;12.25;75.03;101274.00;5031963;28;20757;-56
2022/11/01 08:43:19;;;;;;;21.83;9.70;;;;;;;12.33;74.76;101289.06;5031984;28;20026;-55
2022/11/01 08:45:45;;;;;;;17.85;9.35;;;;;;;12.33;73.98;101284.38;5032049;28;20041;-55
2022/11/01 08:48:10;;;;;;;21.98;10.25;;;;;;;12.35;73.89;101288.78;5031703;28;20599;-56
2022/11/01 08:50:36;;;;;;;22.52;9.82;;;;;;;12.36;74.18;101282.13;5031842;28;20033;-53
2022/11/01 08:53:11;;;;;;;19.63;9.55;;;;;;;12.42;73.60;101300.28;5029552;28;20160;-55
2022/11/01 08:55:37;;;;;;;22.08;10.10;;;;;;;12.40;73.68;101289.50;5031117;28;20128;-53
2022/11/01 08:58:03;;;;;;;19.75;9.00;;;;;;;12.46;73.64;101295.78;5029971;28;20040;-56
2022/11/01 09:00:28;;;;;;;19.60;9.40;;;;;;;12.49;72.98;101289.59;5031234;28;20026;-55
2022/11/01 09:02:54;;;;;;;20.35;9.32;;;;;;;12.48;73.32;101285.19;5031152;28;20132;-56
2022/11/01 09:05:19;;;;;;;21.88;9.60;;;;;;;12.52;73.32;101300.09;5029354;28;20069;-56
2022/11/01 09:07:45;;;;;;;18.80;9.30;;;;;;;12.54;73.78;101302.56;5031118;28;20433;-55
2022/11/01 09:10:10;;;;;;;20.13;9.50;;;;;;;12.63;73.40;101309.03;5031282;28;20041;-56
2022/11/01 09:12:36;;;;;;;21.90;9.70;;;;;;;12.65;72.39;101320.66;5031291;28;20025;-56
2022/11/01 09:15:03;;;;;;;22.98;10.02;;;;;;;12.64;72.52;101308.72;5030178;28;20037;-55
2022/11/01 09:17:29;;;;;;;22.95;9.77;;;;;;;12.63;72.67;101303.47;5030961;28;20044;-56
2022/11/01 09:19:54;;;;;;;20.50;9.65;;;;;;;12.69;72.73;101309.75;5030942;28;20078;-55
2022/11/01 09:22:20;;;;;;;22.20;9.55;;;;;;;12.71;72.99;101313.03;5030897;28;20037;-56
2022/11/01 09:24:45;;;;;;;20.40;9.75;;;;;;;12.71;73.39;101316.63;5031178;28;20033;-56
2022/11/01 09:27:11;;;;;;;21.48;9.38;;;;;;;12.78;72.95;101317.06;5030597;28;20057;-56
2022/11/01 09:29:36;;;;;;;19.17;8.65;;;;;;;12.79;72.98;101312.31;5029350;28;20099;-56
2022/11/01 09:32:02;;;;;;;17.60;8.63;;;;;;;12.84;73.06;101323.31;5030382;28;20619;-55
2022/11/01 09:34:27;;;;;;;18.80;9.18;;;;;;;12.86;72.41;101317.44;5030442;28;20029;-55
2022/11/01 09:36:52;;;;;;;20.58;9.40;;;;;;;12.90;72.35;101330.41;5030769;28;20025;-55
2022/11/01 09:39:20;;;;;;;23.98;9.68;;;;;;;12.88;72.22;101327.09;5030735;28;20029;-56
2022/11/01 09:41:54;;;;;;;20.42;9.30;;;;;;;12.93;72.64;101334.50;5027698;28;20085;-53
2022/11/01 09:44:26;;;;;;;20.17;9.00;;;;;;;12.97;71.95;101335.56;5029121;28;20369;-56
2022/11/01 09:47:11;;;;;;;22.10;10.13;;;;;;;13.01;72.35;101360.75;5030168;28;20033;-55
2022/11/01 09:49:39;;;;;;;21.13;9.23;;;;;;;13.01;72.24;101357.97;5029111;28;20037;-53
2022/11/01 09:52:05;;;;;;;23.48;9.40;;;;;;;13.06;72.28;101364.22;5028453;28;20104;-57
2022/11/01 09:54:31;;;;;;;17.95;8.90;;;;;;;13.13;72.03;101362.97;5030311;28;20113;-55
2022/11/01 09:57:20;;;;;;;22.00;9.30;;;;;;;13.16;72.26;101379.84;5030477;28;20553;-57
2022/11/01 10:00:15;;;;;;;18.50;9.40;;;;;;;13.18;71.93;101372.03;5029363;28;20044;-54
2022/11/01 10:02:59;;;;;;;;;;;;;;;13.21;72.66;101378.91;5030945;28;20464;-56
2022/11/01 10:05:47;;;;;;;20.92;9.50;;;;;;;13.23;72.56;101383.03;5030503;28;20004;-55
2022/11/01 10:08:33;;;;;;;22.77;9.45;;;;;;;13.25;72.40;101389.09;5031269;28;20033;-56
2022/11/01 10:11:21;;;;;;;19.42;9.52;;;;;;;13.33;72.43;101395.03;5031087;28;20021;-55
2022/11/01 10:13:55;;;;;;;22.17;9.88;;;;;;;13.35;72.06;101387.22;5030718;28;20547;-55
2022/11/01 10:16:40;;;;;;;21.70;9.80;;;;;;;13.39;71.88;101389.09;5029952;28;20180;-55
2022/11/01 10:19:13;;;;;;;21.05;9.77;;;;;;;13.41;71.65;101402.69;5029099;28;20129;-56
2022/11/01 10:21:48;;;;;;;19.52;9.90;;;;;;;13.41;71.21;101400.72;5030735;28;20517;-55
2022/11/01 10:24:30;;;;;;;20.80;9.35;;;;;;;13.49;71.72;101395.56;5030120;28;20104;-56
2022/11/01 10:27:06;;;;;;;19.42;9.10;;;;;;;13.52;71.86;101403.28;5033689;28;20083;-55
2022/11/01 10:29:47;;;;;;;18.17;9.45;;;;;;;13.53;71.71;101394.63;5034248;28;20054;-56
2022/11/01 10:32:39;;;;;;;21.35;9.73;;;;;;;13.52;71.85;101406.88;5034214;28;20018;-56
2022/11/01 10:35:13;;;;;;;17.83;9.13;;;;;;;13.49;71.45;101395.56;5033858;28;20030;-56
2022/11/01 10:37:41;;;;;;;;;;;;;;;13.54;72.17;101403.81;5034089;28;20045;-54
2022/11/01 10:40:13;;;;;;;22.98;9.68;;;;;;;13.54;71.86;101406.59;5033539;28;19913;-54
2022/11/01 10:42:39;;;;;;;20.52;10.07;;;;;;;13.57;71.56;101400.38;5033687;28;20033;-55
2022/11/01 10:45:09;;;;;;;22.60;9.30;;;;;;;13.64;70.62;101408.28;5030458;28;20040;-54
2022/11/01 10:47:35;;;;;;;22.30;9.93;;;;;;;13.65;71.09;101407.16;5033052;28;20022;-56
2022/11/01 10:50:06;;;;;;;20.98;9.60;;;;;;;13.69;70.68;101400.66;5015661;28;20488;-55
2022/11/01 10:52:55;;;;;;;19.08;9.70;;;;;;;13.75;70.78;101401.38;5015935;28;20037;-55
2022/11/01 10:55:51;;;;;;;23.98;10.05;;;;;;;13.73;71.08;101393.34;5033240;28;20099;-55
2022/11/01 10:58:38;;;;;;;23.25;9.50;;;;;;;13.80;70.61;101395.66;5038808;28;20424;-55
2022/11/01 11:01:06;;;;;;;18.05;9.00;;;;;;;13.87;70.33;101395.22;5040593;28;20477;-56
2022/11/01 11:03:32;;;;;;;19.67;9.43;;;;;;;13.92;69.91;101397.06;5042249;28;20047;-56
2022/11/01 11:06:03;;;;;;;16.58;9.35;;;;;;;13.97;69.49;101406.13;5043765;28;20449;-56
2022/11/01 11:08:29;;;;;;;19.58;9.23;;;;;;;14.00;70.03;101388.81;5043266;28;20105;-56
2022/11/01 11:11:00;;;;;;;18.10;9.25;;;;;;;14.06;69.90;101410.91;5033710;28;20108;-56
2022/11/01 11:13:26;;;;;;;22.27;9.70;;;;;;;14.06;69.35;101408.97;5032996;28;20033;-57
2022/11/01 11:16:01;;;;;;;18.20;9.25;;;;;;;14.11;69.00;101399.69;5032835;28;20103;-56
2022/11/01 11:18:30;;;;;;;20.92;8.73;;;;;;;14.13;68.33;101389.88;5033299;28;20033;-55
2022/11/01 11:20:59;;;;;;;20.52;9.18;;;;;;;14.09;68.86;101383.28;5033324;28;20025;-54
2022/11/01 11:23:29;;;;;;;18.73;9.07;;;;;;;14.20;68.64;101390.25;5032765;28;20053;-55